Time;durP1;ratioP1;P1;durP2;ratioP2;P2;SDS_P1;SDS_P2;PMS_P1;PMS_P2;Temp;Humidity;BMP_temperature;BMP_pressure;BME280_temperature;BME280_humidity;BME280_pressure;Samples;Min_cycle;Max_cycle;Signal;HPM_P1;HPM_P2
2022/01/05 00:01:08;;;;;;;0.30;0.30;;;6.80;55.70;;;;;;5149922;27;34427;-77
2022/01/05 00:03:34;;;;;;;0.32;0.32;;;6.70;55.90;;;;;;5115741;27;36263;-77
2022/01/05 00:06:00;;;;;;;0.20;0.20;;;6.50;55.40;;;;;;5151221;27;34251;-77
2022/01/05 00:08:26;;;;;;;0.28;0.28;;;6.40;56.20;;;;;;5134361;27;34238;-77
2022/01/05 00:10:53;;;;;;;0.28;0.28;;;6.30;56.30;;;;;;5151425;27;34193;-77
2022/01/05 00:13:19;;;;;;;0.20;0.20;;;6.20;56.30;;;;;;5150435;27;36464;-77
2022/01/05 00:15:45;;;;;;;0.40;0.40;;;6.10;55.80;;;;;;5150678;27;34387;-77
2022/01/05 00:18:11;;;;;;;0.52;0.38;;;6.10;56.70;;;;;;5151039;27;34408;-77
2022/01/05 00:20:37;;;;;;;0.30;0.30;;;6.00;56.20;;;;;;5151051;27;34360;-77
2022/01/05 00:23:03;;;;;;;0.28;0.28;;;5.90;56.60;;;;;;5151565;27;34405;-77
2022/01/05 00:25:30;;;;;;;0.28;0.28;;;5.90;56.10;;;;;;5081250;28;34290;-78
2022/01/05 00:27:56;;;;;;;0.28;0.28;;;5.80;56.20;;;;;;5150775;27;34231;-77
2022/01/05 00:30:22;;;;;;;0.20;0.20;;;5.80;56.30;;;;;;5080639;28;34239;-77
2022/01/05 00:32:47;;;;;;;0.17;0.17;;;5.70;56.90;;;;;;5150488;27;35840;-77
2022/01/05 00:35:14;;;;;;;0.30;0.30;;;5.70;56.30;;;;;;5150870;27;34184;-77
2022/01/05 00:37:40;;;;;;;0.30;0.30;;;5.70;56.50;;;;;;5150833;27;34127;-77
2022/01/05 00:40:06;;;;;;;1.20;0.40;;;5.60;56.30;;;;;;5132601;27;34195;-77
2022/01/05 00:42:33;;;;;;;0.20;0.20;;;5.60;56.20;;;;;;5079734;28;35276;-77
2022/01/05 00:44:59;;;;;;;0.13;0.13;;;5.60;56.20;;;;;;5150285;27;34193;-77
2022/01/05 00:47:25;;;;;;;0.25;0.25;;;5.60;56.20;;;;;;5149874;27;34359;-78
2022/01/05 00:49:51;;;;;;;0.30;0.30;;;5.50;56.10;;;;;;5150982;27;34337;-78
2022/01/05 00:52:17;;;;;;;0.20;0.20;;;5.50;55.40;;;;;;5080035;28;35124;-78
2022/01/05 00:54:45;;;;;;;0.63;0.20;;;5.50;56.00;;;;;;5150711;27;34312;-77
2022/01/05 00:57:12;;;;;;;0.30;0.30;;;5.40;56.00;;;;;;5133051;27;34308;-77
2022/01/05 00:59:38;;;;;;;0.30;0.30;;;5.40;56.00;;;;;;5079855;28;34043;-78
2022/01/05 01:02:04;;;;;;;0.10;0.10;;;5.40;55.80;;;;;;5150285;27;36365;-78
2022/01/05 01:04:30;;;;;;;0.20;0.20;;;5.40;54.70;;;;;;5132741;27;34203;-78
2022/01/05 01:06:56;;;;;;;2.47;0.30;;;5.40;55.70;;;;;;5150409;27;34169;-77
2022/01/05 01:09:22;;;;;;;0.32;0.25;;;5.40;56.20;;;;;;5079454;28;34295;-78
2022/01/05 01:11:48;;;;;;;0.10;0.10;;;5.40;56.00;;;;;;5080106;28;35215;-78
2022/01/05 01:14:14;;;;;;;0.20;0.20;;;5.40;56.00;;;;;;5131859;27;34388;-78
2022/01/05 01:16:40;;;;;;;0.20;0.20;;;5.40;55.90;;;;;;5150451;27;34290;-78
2022/01/05 01:19:06;;;;;;;0.30;0.30;;;5.40;55.40;;;;;;5150360;27;34203;-78
2022/01/05 01:21:33;;;;;;;0.30;0.30;;;5.40;55.40;;;;;;5149691;27;35782;-78
2022/01/05 01:23:59;;;;;;;0.20;0.20;;;5.30;55.10;;;;;;5132666;27;34175;-77
2022/01/05 01:26:29;;;;;;;0.88;0.30;;;5.30;55.20;;;;;;5150196;27;34084;-79
2022/01/05 01:28:56;;;;;;;0.30;0.30;;;5.30;55.50;;;;;;5149947;27;34196;-78
2022/01/05 01:31:22;;;;;;;0.22;0.22;;;5.30;55.70;;;;;;5079177;28;34249;-78
2022/01/05 01:33:48;;;;;;;0.73;0.43;;;5.30;55.80;;;;;;5149736;27;34146;-77
2022/01/05 01:36:14;;;;;;;0.20;0.20;;;5.30;55.30;;;;;;5079913;28;34236;-78
2022/01/05 01:38:42;;;;;;;0.45;0.40;;;5.30;55.20;;;;;;5150398;27;34479;-78
2022/01/05 01:41:09;;;;;;;1.35;0.30;;;5.30;55.20;;;;;;5149133;27;35694;-78
2022/01/05 01:43:36;;;;;;;0.30;0.30;;;5.20;55.20;;;;;;5148579;27;34225;-78
2022/01/05 01:46:04;;;;;;;1.10;0.40;;;5.20;54.90;;;;;;5132277;27;34425;-78
2022/01/05 01:48:30;;;;;;;0.38;0.38;;;5.20;55.10;;;;;;5149105;27;34194;-78
2022/01/05 01:50:56;;;;;;;1.27;0.50;;;5.20;55.20;;;;;;5149564;27;35716;-78
2022/01/05 01:53:22;;;;;;;0.32;0.32;;;5.20;55.10;;;;;;5148235;27;34202;-77
2022/01/05 01:55:50;;;;;;;1.40;0.80;;;5.20;55.20;;;;;;5080056;28;35067;-78
2022/01/05 01:58:18;;;;;;;0.75;0.55;;;5.10;53.70;;;;;;5080281;28;34330;-79
2022/01/05 02:00:44;;;;;;;2.05;0.65;;;5.10;54.60;;;;;;5079367;28;34303;-78
2022/01/05 02:03:14;;;;;;;1.95;0.85;;;5.00;54.60;;;;;;5079231;27;34253;-78
2022/01/05 02:05:40;;;;;;;1.20;0.68;;;5.00;54.40;;;;;;5149589;27;34140;-77
2022/01/05 02:08:06;;;;;;;0.60;0.57;;;4.90;54.40;;;;;;5149587;27;34113;-78
2022/01/05 02:10:32;;;;;;;1.38;0.63;;;4.90;54.30;;;;;;5148856;27;35940;-78
2022/01/05 02:12:58;;;;;;;0.50;0.50;;;4.80;54.40;;;;;;5148728;27;34231;-78
2022/01/05 02:15:24;;;;;;;3.25;0.80;;;4.80;54.70;;;;;;5148956;27;34375;-78
2022/01/05 02:18:09;;;;;;;0.88;0.60;;;4.80;54.60;;;;;;5149315;27;34220;-78
2022/01/05 02:20:36;;;;;;;1.88;0.85;;;4.80;54.70;;;;;;5134189;27;35513;-78
2022/01/05 02:23:02;;;;;;;0.75;0.65;;;4.80;54.60;;;;;;5132099;27;34011;-78
2022/01/05 02:25:28;;;;;;;3.88;1.08;;;4.80;54.40;;;;;;5148523;27;34151;-77
2022/01/05 02:27:56;;;;;;;3.60;1.05;;;4.80;54.00;;;;;;5152584;27;34303;-78
2022/01/05 02:30:26;;;;;;;1.40;0.93;;;4.70;54.50;;;;;;5081781;28;34779;-78
2022/01/05 02:32:52;;;;;;;1.73;1.30;;;4.70;54.80;;;;;;5139653;27;34125;-77
2022/01/05 02:35:18;;;;;;;1.70;0.98;;;4.70;54.70;;;;;;5078870;28;34280;-78
2022/01/05 02:37:47;;;;;;;4.05;1.20;;;4.70;54.30;;;;;;5152853;27;34574;-77
2022/01/05 02:40:15;;;;;;;2.92;1.02;;;4.70;54.50;;;;;;5152360;27;35815;-77
2022/01/05 02:42:42;;;;;;;1.48;1.27;;;4.70;54.40;;;;;;5082848;28;34254;-78
2022/01/05 02:45:10;;;;;;;2.70;1.20;;;4.70;54.50;;;;;;5135978;27;34414;-78
2022/01/05 02:47:36;;;;;;;5.93;1.50;;;4.70;54.20;;;;;;5153313;27;34303;-78
2022/01/05 02:50:05;;;;;;;7.15;1.67;;;4.60;53.90;;;;;;5082104;28;34764;-78
2022/01/05 02:52:31;;;;;;;2.15;1.15;;;4.60;54.30;;;;;;5117526;27;34335;-78
2022/01/05 02:54:57;;;;;;;1.27;0.93;;;4.60;54.30;;;;;;5153222;27;34211;-78
2022/01/05 02:57:23;;;;;;;4.25;1.30;;;4.60;54.10;;;;;;5152051;27;34114;-78
2022/01/05 02:59:49;;;;;;;1.92;1.40;;;4.60;53.90;;;;;;5135397;27;36714;-78
2022/01/05 03:02:15;;;;;;;2.53;1.27;;;4.60;53.80;;;;;;5152140;27;34183;-78
2022/01/05 03:04:42;;;;;;;2.33;1.30;;;4.60;54.00;;;;;;5151966;27;34313;-78
2022/01/05 03:07:08;;;;;;;3.70;1.50;;;4.60;53.90;;;;;;5152474;27;34410;-78
2022/01/05 03:09:35;;;;;;;1.45;1.33;;;4.50;53.70;;;;;;5081499;28;34243;-77
2022/01/05 03:12:01;;;;;;;1.27;1.17;;;4.50;53.50;;;;;;5134710;27;34287;-78
2022/01/05 03:14:27;;;;;;;5.32;1.42;;;4.50;53.70;;;;;;5151320;27;34223;-78
2022/01/05 03:16:53;;;;;;;3.42;1.83;;;4.50;53.80;;;;;;5134717;27;34223;-78
2022/01/05 03:19:19;;;;;;;3.72;1.65;;;4.40;53.90;;;;;;5151558;27;35749;-78
2022/01/05 03:21:45;;;;;;;2.28;1.63;;;4.40;53.60;;;;;;5152324;27;34296;-78
2022/01/05 03:24:12;;;;;;;2.80;1.45;;;4.40;53.70;;;;;;5152392;27;34424;-77
2022/01/05 03:26:38;;;;;;;2.08;1.42;;;4.40;53.50;;;;;;5081170;28;34577;-77
2022/01/05 03:29:04;;;;;;;3.10;1.35;;;4.40;53.90;;;;;;5134600;27;34452;-77
2022/01/05 03:31:30;;;;;;;4.13;1.55;;;4.40;53.60;;;;;;5151989;27;34454;-78
2022/01/05 03:33:56;;;;;;;4.07;1.75;;;4.40;53.90;;;;;;5152052;27;34332;-77
2022/01/05 03:36:22;;;;;;;3.70;1.50;;;4.30;53.60;;;;;;5151523;27;34588;-78
2022/01/05 03:38:48;;;;;;;2.47;1.40;;;4.30;53.40;;;;;;5150983;27;35921;-77
2022/01/05 03:41:14;;;;;;;2.42;1.15;;;4.20;53.40;;;;;;5151075;27;34125;-77
2022/01/05 03:43:41;;;;;;;2.10;1.20;;;4.20;52.70;;;;;;5134382;27;34141;-78
2022/01/05 03:46:07;;;;;;;3.70;1.25;;;4.10;53.50;;;;;;5081305;28;34323;-77
2022/01/05 03:48:33;;;;;;;4.55;1.63;;;4.10;53.60;;;;;;5080600;28;34418;-77
2022/01/05 03:51:05;;;;;;;1.90;1.15;;;4.00;53.10;;;;;;5149709;27;34407;-78
2022/01/05 03:53:31;;;;;;;3.63;1.30;;;3.90;53.50;;;;;;5136204;27;34334;-78
2022/01/05 03:55:57;;;;;;;3.33;1.42;;;3.90;53.80;;;;;;5135292;27;34533;-77
2022/01/05 03:58:24;;;;;;;3.30;1.80;;;3.90;52.90;;;;;;5081367;28;35112;-77
2022/01/05 04:00:52;;;;;;;6.55;1.75;;;3.80;53.70;;;;;;5150568;27;34287;-78
2022/01/05 04:03:19;;;;;;;4.28;1.63;;;3.80;53.90;;;;;;5152587;27;34355;-77
2022/01/05 04:05:45;;;;;;;3.83;1.60;;;3.80;54.00;;;;;;5148587;27;34679;-77
2022/01/05 04:08:11;;;;;;;3.03;1.73;;;3.80;54.10;;;;;;5165135;27;35566;-77
2022/01/05 04:10:39;;;;;;;3.72;1.20;;;3.80;53.90;;;;;;5134534;27;34324;-77
2022/01/05 04:13:05;;;;;;;3.72;1.73;;;3.80;54.10;;;;;;5133896;27;34236;-77
2022/01/05 04:15:31;;;;;;;4.05;1.50;;;3.80;54.40;;;;;;5150718;27;34527;-77
2022/01/05 04:17:57;;;;;;;2.50;1.60;;;3.80;54.10;;;;;;5150034;27;36572;-77
2022/01/05 04:20:24;;;;;;;4.60;1.50;;;3.80;54.30;;;;;;5133506;27;34164;-77
2022/01/05 04:22:50;;;;;;;5.10;1.40;;;3.80;54.00;;;;;;5151036;27;34381;-78
2022/01/05 04:25:16;;;;;;;4.47;1.02;;;3.80;53.80;;;;;;5151293;27;34319;-78
2022/01/05 04:27:42;;;;;;;2.75;1.40;;;3.80;52.90;;;;;;5080674;28;34881;-77
2022/01/05 04:30:10;;;;;;;5.20;1.35;;;3.80;52.40;;;;;;5150780;27;34384;-77
2022/01/05 04:32:36;;;;;;;3.42;1.50;;;3.80;53.00;;;;;;5150408;27;34209;-78
2022/01/05 04:35:03;;;;;;;2.17;1.42;;;3.70;53.20;;;;;;5080726;28;34423;-77
2022/01/05 04:37:31;;;;;;;10.88;1.40;;;3.70;52.90;;;;;;5133618;27;34606;-77
2022/01/05 04:39:59;;;;;;;4.40;1.42;;;3.70;52.90;;;;;;5133030;27;34351;-77
2022/01/05 04:42:26;;;;;;;5.70;1.42;;;3.60;52.80;;;;;;5150353;27;34195;-77
2022/01/05 04:44:53;;;;;;;5.65;1.02;;;3.60;52.80;;;;;;5080620;28;34170;-77
2022/01/05 04:47:20;;;;;;;2.75;1.35;;;3.60;53.00;;;;;;5149701;27;35533;-78
2022/01/05 04:49:46;;;;;;;4.70;1.10;;;3.60;52.90;;;;;;5079461;28;34254;-77
2022/01/05 04:52:11;;;;;;;3.30;1.38;;;3.60;52.70;;;;;;5150089;27;34418;-77
2022/01/05 04:54:38;;;;;;;2.15;1.30;;;3.60;52.90;;;;;;5150183;27;34562;-77
2022/01/05 04:57:05;;;;;;;4.32;1.23;;;3.60;52.60;;;;;;5149670;27;36005;-77
2022/01/05 04:59:32;;;;;;;7.05;1.40;;;3.60;52.60;;;;;;5150123;27;34307;-77
2022/01/05 05:01:58;;;;;;;3.53;1.58;;;3.60;52.40;;;;;;5150383;27;34334;-78
2022/01/05 05:04:24;;;;;;;4.35;1.33;;;3.60;52.30;;;;;;5150426;27;34247;-78
2022/01/05 05:06:50;;;;;;;1.80;1.17;;;3.60;52.10;;;;;;5132803;27;35638;-77
2022/01/05 05:09:17;;;;;;;8.88;1.58;;;3.60;52.60;;;;;;5132812;27;34132;-77
2022/01/05 05:11:43;;;;;;;3.20;1.33;;;3.60;52.30;;;;;;5150135;27;34192;-77
2022/01/05 05:14:10;;;;;;;5.20;1.20;;;3.50;53.00;;;;;;5080067;28;34105;-77
2022/01/05 05:16:36;;;;;;;3.72;1.00;;;3.50;53.00;;;;;;5149042;27;36597;-77
2022/01/05 05:19:02;;;;;;;6.47;1.70;;;3.50;53.00;;;;;;5149952;27;34134;-77
2022/01/05 05:21:28;;;;;;;5.82;1.48;;;3.50;53.00;;;;;;5149489;27;34340;-77
2022/01/05 05:23:54;;;;;;;1.45;1.05;;;3.40;52.90;;;;;;5149958;27;34467;-77
2022/01/05 05:26:20;;;;;;;2.95;1.38;;;3.40;52.40;;;;;;5079536;28;35424;-77
2022/01/05 05:28:46;;;;;;;9.27;1.77;;;3.40;52.90;;;;;;5149747;27;34518;-77
2022/01/05 05:31:12;;;;;;;3.13;1.10;;;3.40;52.30;;;;;;5101000;27;34178;-77
2022/01/05 05:33:38;;;;;;;5.40;1.65;;;3.40;52.50;;;;;;5149208;27;34455;-76
2022/01/05 05:36:04;;;;;;;1.83;1.15;;;3.40;52.70;;;;;;5150623;27;34224;-77
2022/01/05 05:38:30;;;;;;;3.58;1.25;;;3.40;51.80;;;;;;5149801;27;34330;-77
2022/01/05 05:40:57;;;;;;;4.95;1.20;;;3.40;52.40;;;;;;5115045;27;34273;-77
2022/01/05 05:43:23;;;;;;;4.53;1.45;;;3.50;52.50;;;;;;5079446;28;34504;-77
2022/01/05 05:45:49;;;;;;;2.08;1.13;;;3.50;52.40;;;;;;5131805;27;36972;-77
2022/01/05 05:48:15;;;;;;;1.95;1.25;;;3.50;52.40;;;;;;5149785;27;34313;-77
2022/01/05 05:50:41;;;;;;;5.22;1.23;;;3.50;51.90;;;;;;5150703;27;34190;-77
2022/01/05 05:53:07;;;;;;;2.88;1.40;;;3.50;52.20;;;;;;5149821;27;34166;-77
2022/01/05 05:55:33;;;;;;;3.08;1.10;;;3.40;52.00;;;;;;5184236;27;35792;-76
2022/01/05 05:58:00;;;;;;;1.77;1.17;;;3.40;51.90;;;;;;5132120;27;34167;-76
2022/01/05 06:00:26;;;;;;;3.97;1.60;;;3.40;52.00;;;;;;5080862;28;34276;-77
2022/01/05 06:02:52;;;;;;;6.25;1.60;;;3.40;52.10;;;;;;5153418;27;34477;-77
2022/01/05 06:05:18;;;;;;;1.80;1.25;;;3.40;52.30;;;;;;5153147;27;35553;-76
2022/01/05 06:07:44;;;;;;;5.25;1.77;;;3.30;52.50;;;;;;5100062;27;34223;-77
2022/01/05 06:10:11;;;;;;;3.55;1.50;;;3.30;52.60;;;;;;5167879;27;34631;-76
2022/01/05 06:12:36;;;;;;;4.90;1.58;;;3.30;52.50;;;;;;5153602;27;34341;-76
2022/01/05 06:15:03;;;;;;;3.38;1.33;;;3.20;52.30;;;;;;5082437;27;34699;-77
2022/01/05 06:17:29;;;;;;;3.88;1.33;;;3.20;52.60;;;;;;5152013;27;34083;-77
2022/01/05 06:19:55;;;;;;;4.22;1.23;;;3.20;52.60;;;;;;5152784;27;34273;-77
2022/01/05 06:22:21;;;;;;;7.28;1.92;;;3.10;52.70;;;;;;5081706;28;34309;-77
2022/01/05 06:24:47;;;;;;;2.88;1.45;;;3.10;52.90;;;;;;5152689;27;36756;-76
2022/01/05 06:27:13;;;;;;;2.08;1.35;;;3.10;52.70;;;;;;5152583;27;34364;-77
2022/01/05 06:29:40;;;;;;;4.00;1.75;;;3.10;52.50;;;;;;5171257;27;34247;-77
2022/01/05 06:32:06;;;;;;;3.58;1.95;;;3.10;52.60;;;;;;5154607;27;34266;-77
2022/01/05 06:34:32;;;;;;;5.10;1.40;;;3.10;52.60;;;;;;5170511;27;35871;-77
2022/01/05 06:36:58;;;;;;;3.28;1.75;;;3.10;52.60;;;;;;5135064;27;34296;-77
2022/01/05 06:39:24;;;;;;;3.35;1.20;;;3.10;52.80;;;;;;5135204;27;34355;-77
2022/01/05 06:41:50;;;;;;;6.30;2.05;;;3.20;52.50;;;;;;5152502;27;34129;-77
2022/01/05 06:44:16;;;;;;;4.30;1.65;;;3.20;52.40;;;;;;5081678;28;34521;-77
2022/01/05 06:46:42;;;;;;;3.17;1.42;;;3.20;52.10;;;;;;5134890;27;34301;-76
2022/01/05 06:49:08;;;;;;;3.67;1.33;;;3.20;52.40;;;;;;5152585;27;34225;-76
2022/01/05 06:51:34;;;;;;;5.65;1.65;;;3.20;52.50;;;;;;5152646;27;34258;-76
2022/01/05 06:54:00;;;;;;;1.35;1.25;;;3.20;52.70;;;;;;5134867;27;35628;-77
2022/01/05 06:56:26;;;;;;;5.65;1.70;;;3.20;52.40;;;;;;5152326;27;34499;-76
2022/01/05 06:58:52;;;;;;;5.13;1.45;;;3.20;52.10;;;;;;5135208;27;34172;-76
2022/01/05 07:01:18;;;;;;;5.03;1.40;;;3.20;52.50;;;;;;5152340;27;34393;-77
2022/01/05 07:03:44;;;;;;;3.10;1.30;;;3.20;52.60;;;;;;5134366;27;36793;-76
2022/01/05 07:06:10;;;;;;;9.77;2.00;;;3.20;52.50;;;;;;5152092;27;34282;-77
2022/01/05 07:08:36;;;;;;;5.43;1.23;;;3.20;51.90;;;;;;5152073;27;34435;-77
2022/01/05 07:11:02;;;;;;;3.25;1.17;;;3.30;52.60;;;;;;5081240;28;34155;-77
2022/01/05 07:13:28;;;;;;;6.78;1.80;;;3.30;52.60;;;;;;5150860;27;35043;-76
2022/01/05 07:15:54;;;;;;;9.15;1.83;;;3.30;52.30;;;;;;5151670;27;34027;-76
2022/01/05 07:18:20;;;;;;;5.90;1.38;;;3.30;52.60;;;;;;5081882;28;34127;-77
2022/01/05 07:20:47;;;;;;;4.57;1.70;;;3.30;53.40;;;;;;5081732;28;34199;-77
2022/01/05 07:23:13;;;;;;;4.00;1.58;;;3.40;52.50;;;;;;5151421;27;35847;-77
2022/01/05 07:25:39;;;;;;;7.25;1.50;;;3.40;52.50;;;;;;5080681;28;34226;-77
2022/01/05 07:28:05;;;;;;;4.70;1.55;;;3.40;52.40;;;;;;5134333;27;34356;-77
2022/01/05 07:30:31;;;;;;;5.72;1.60;;;3.40;52.50;;;;;;5152099;27;34267;-77
2022/01/05 07:32:57;;;;;;;7.93;1.70;;;3.40;52.30;;;;;;5151672;27;35796;-77
2022/01/05 07:35:23;;;;;;;5.28;1.48;;;3.40;52.50;;;;;;5151388;27;34086;-77
2022/01/05 07:37:49;;;;;;;4.43;1.45;;;3.50;52.20;;;;;;5080984;28;34170;-76
2022/01/05 07:40:15;;;;;;;5.20;1.60;;;3.50;52.20;;;;;;5151181;27;34174;-77
2022/01/05 07:42:41;;;;;;;5.25;1.42;;;3.50;52.40;;;;;;5151246;27;35601;-77
2022/01/05 07:45:09;;;;;;;4.72;2.35;;;3.50;52.20;;;;;;5151741;27;34420;-76
2022/01/05 07:47:36;;;;;;;6.30;1.65;;;3.50;52.40;;;;;;5151416;27;34300;-76
2022/01/05 07:50:04;;;;;;;5.10;1.40;;;3.50;52.40;;;;;;5081218;28;34283;-76
2022/01/05 07:52:30;;;;;;;5.07;2.03;;;3.60;52.40;;;;;;5152292;27;35582;-76
2022/01/05 07:54:56;;;;;;;6.22;2.00;;;3.60;52.60;;;;;;5081045;28;34301;-76
2022/01/05 07:57:22;;;;;;;2.05;0.95;;;3.60;52.30;;;;;;5116704;27;34106;-76
2022/01/05 07:59:48;;;;;;;7.25;1.88;;;3.60;52.20;;;;;;5151255;27;34077;-77
2022/01/05 08:02:14;;;;;;;7.15;1.90;;;3.60;52.30;;;;;;5151183;27;34280;-77
2022/01/05 08:04:40;;;;;;;3.22;1.30;;;3.60;52.10;;;;;;5133782;27;34132;-77
2022/01/05 08:07:06;;;;;;;6.05;2.10;;;3.60;52.20;;;;;;5133811;27;34183;-77
2022/01/05 08:09:32;;;;;;;4.28;1.63;;;3.60;52.00;;;;;;5134012;27;34505;-77
2022/01/05 08:11:58;;;;;;;9.20;2.35;;;3.70;52.30;;;;;;5134374;27;35905;-77
2022/01/05 08:14:24;;;;;;;1.77;1.08;;;3.70;52.50;;;;;;5133331;27;34493;-77
2022/01/05 08:16:50;;;;;;;5.32;1.58;;;3.70;52.30;;;;;;5151382;27;34416;-77
2022/01/05 08:19:16;;;;;;;3.90;2.03;;;3.70;52.10;;;;;;5133815;27;34211;-77
2022/01/05 08:21:42;;;;;;;7.55;1.85;;;3.80;52.40;;;;;;5080387;28;34408;-77
2022/01/05 08:24:08;;;;;;;4.88;1.35;;;3.80;52.20;;;;;;5132181;27;34362;-77
2022/01/05 08:26:34;;;;;;;8.30;1.90;;;3.80;52.20;;;;;;5080472;28;34645;-77
2022/01/05 08:29:00;;;;;;;5.22;1.33;;;3.80;52.20;;;;;;5150652;27;34320;-77
2022/01/05 08:31:26;;;;;;;5.57;1.73;;;3.80;52.20;;;;;;5115764;27;35839;-76
2022/01/05 08:33:56;;;;;;;8.07;1.67;;;3.90;52.30;;;;;;5150373;27;34275;-76
2022/01/05 08:36:23;;;;;;;3.53;1.27;;;3.90;52.10;;;;;;5151550;27;34484;-76
2022/01/05 08:38:49;;;;;;;7.13;1.75;;;3.90;52.30;;;;;;5150362;27;34288;-77
2022/01/05 08:41:15;;;;;;;4.32;1.52;;;3.90;52.10;;;;;;5150461;27;35961;-76
2022/01/05 08:43:41;;;;;;;2.55;1.55;;;4.00;51.50;;;;;;5150212;27;34114;-76
2022/01/05 08:46:19;;;;;;;2.63;1.23;;;4.00;51.90;;;;;;5140812;27;34225;-77
2022/01/05 08:48:44;;;;;;;3.42;1.83;;;4.00;51.90;;;;;;5123302;27;34324;-77
2022/01/05 08:51:11;;;;;;;7.10;1.80;;;4.10;52.10;;;;;;5122934;27;34278;-76
2022/01/05 08:53:36;;;;;;;8.35;1.58;;;4.00;51.70;;;;;;5139699;27;36504;-77
2022/01/05 08:58:47;;;;;;;1.88;1.00;;;4.10;51.90;;;;;;5140454;27;34143;-77
2022/01/05 09:01:13;;;;;;;4.60;1.30;;;4.10;51.30;;;;;;5122042;27;34478;-77
2022/01/05 09:03:39;;;;;;;6.78;1.60;;;4.10;51.60;;;;;;5139744;27;35952;-77
2022/01/05 09:06:06;;;;;;;4.95;1.60;;;4.10;51.10;;;;;;5122365;27;34199;-77
2022/01/05 09:08:33;;;;;;;3.13;1.50;;;4.10;51.50;;;;;;5141454;27;34122;-77
2022/01/05 09:10:59;;;;;;;9.07;1.80;;;4.20;51.50;;;;;;5141030;27;34263;-77
2022/01/05 09:13:25;;;;;;;5.78;1.48;;;4.20;51.40;;;;;;5141358;27;34149;-77
2022/01/05 09:15:52;;;;;;;3.55;1.75;;;4.20;51.50;;;;;;5140620;27;34234;-77
2022/01/05 09:18:18;;;;;;;3.63;1.33;;;4.20;51.40;;;;;;5141844;27;34287;-77
2022/01/05 09:20:45;;;;;;;4.88;1.63;;;4.30;50.80;;;;;;5141178;27;34354;-76
2022/01/05 09:23:11;;;;;;;2.83;1.40;;;4.30;51.10;;;;;;5122958;27;35527;-77
2022/01/05 09:25:37;;;;;;;5.53;1.52;;;4.40;51.30;;;;;;5140883;27;34413;-77
2022/01/05 09:28:04;;;;;;;4.70;1.48;;;4.40;50.60;;;;;;5140741;27;34284;-77
2022/01/05 09:30:30;;;;;;;3.55;1.35;;;4.50;51.40;;;;;;5140200;27;34194;-77
2022/01/05 09:32:58;;;;;;;5.65;1.83;;;4.50;50.30;;;;;;5139322;27;34345;-77
2022/01/05 09:35:25;;;;;;;5.82;1.45;;;4.60;51.30;;;;;;5140575;27;34184;-77
2022/01/05 09:43:14;;;;;;;5.45;1.52;;;4.60;50.40;;;;;;5139980;27;34214;-77
2022/01/05 09:45:57;;;;;;;5.15;1.52;;;4.60;50.80;;;;;;5121915;27;34192;-77
2022/01/05 09:48:43;;;;;;;4.00;1.67;;;4.60;50.50;;;;;;5140431;27;34304;-77
2022/01/05 09:51:10;;;;;;;4.55;1.45;;;4.60;50.80;;;;;;5123551;27;34315;-78
2022/01/05 09:53:37;;;;;;;4.65;2.08;;;4.60;50.40;;;;;;5139615;27;36687;-77
2022/01/05 09:56:05;;;;;;;2.30;1.30;;;4.60;50.60;;;;;;5116727;27;34091;-77
2022/01/05 09:58:32;;;;;;;5.60;1.30;;;4.60;50.50;;;;;;5108428;27;34123;-77
2022/01/05 10:00:59;;;;;;;4.88;1.33;;;4.60;50.70;;;;;;5125137;27;34283;-77
2022/01/05 10:03:26;;;;;;;3.72;1.70;;;4.60;50.30;;;;;;5124948;27;36939;-77
2022/01/05 10:05:52;;;;;;;9.20;1.83;;;4.70;50.90;;;;;;5124223;27;34184;-77
2022/01/05 10:08:18;;;;;;;2.60;1.30;;;4.70;51.20;;;;;;5124391;27;34453;-77
2022/01/05 10:10:45;;;;;;;5.38;1.25;;;4.80;50.60;;;;;;5126813;27;34328;-78
2022/01/05 10:13:11;;;;;;;4.45;1.73;;;4.90;50.00;;;;;;5124787;27;35909;-77
2022/01/05 10:15:37;;;;;;;4.05;1.40;;;4.90;49.90;;;;;;5125925;27;34375;-77
2022/01/05 10:18:22;;;;;;;3.97;1.42;;;4.90;50.60;;;;;;5125678;27;34424;-77
2022/01/05 10:21:01;;;;;;;3.45;1.55;;;4.90;48.60;;;;;;5124899;27;34342;-77
2022/01/05 10:23:36;;;;;;;3.75;1.70;;;4.90;50.00;;;;;;5125309;27;34362;-77
2022/01/05 10:26:20;;;;;;;2.83;1.55;;;4.90;49.70;;;;;;5124437;27;34186;-77
2022/01/05 10:28:47;;;;;;;11.13;1.98;;;4.90;49.40;;;;;;5107478;27;34230;-77
2022/01/05 10:31:16;;;;;;;7.15;1.38;;;5.00;50.40;;;;;;5124151;27;34410;-77
2022/01/05 10:33:43;;;;;;;3.20;1.42;;;5.00;49.60;;;;;;5107487;27;36443;-77
2022/01/05 10:36:09;;;;;;;3.53;1.27;;;5.00;49.80;;;;;;5125259;27;34312;-77
2022/01/05 10:38:35;;;;;;;11.13;1.77;;;5.00;49.90;;;;;;5124245;27;34245;-76
2022/01/05 10:41:15;;;;;;;3.28;1.23;;;5.00;50.00;;;;;;5124178;27;34403;-77
2022/01/05 10:44:12;;;;;;;6.78;1.60;;;5.00;49.40;;;;;;5107142;27;36137;-77
2022/01/05 10:46:42;;;;;;;1.83;1.08;;;5.00;48.30;;;;;;5124264;27;34384;-77
2022/01/05 10:49:09;;;;;;;5.38;1.38;;;5.10;49.70;;;;;;5124165;27;34494;-77
2022/01/05 10:51:36;;;;;;;2.28;1.27;;;5.10;49.50;;;;;;5107277;27;34301;-77
2022/01/05 10:54:20;;;;;;;5.72;1.58;;;5.10;49.40;;;;;;5123987;27;35789;-77
2022/01/05 10:56:47;;;;;;;5.70;1.58;;;5.00;47.90;;;;;;5124061;27;34028;-77
2022/01/05 10:59:14;;;;;;;3.30;1.08;;;5.00;49.80;;;;;;5125540;27;34192;-76
2022/01/05 11:01:41;;;;;;;2.80;1.20;;;5.10;48.50;;;;;;5124403;27;34103;-76
2022/01/05 11:04:17;;;;;;;3.13;1.38;;;5.10;49.50;;;;;;5106636;27;36803;-77
2022/01/05 11:07:03;;;;;;;3.40;1.30;;;5.10;48.90;;;;;;5124297;27;34107;-78
2022/01/05 11:09:31;;;;;;;2.83;1.23;;;5.10;45.40;;;;;;5124247;27;34247;-77
2022/01/05 11:11:58;;;;;;;3.58;1.27;;;5.10;49.20;;;;;;5124263;27;34267;-77
2022/01/05 11:14:30;;;;;;;4.75;1.20;;;5.20;49.90;;;;;;5106907;27;35633;-76
2022/01/05 11:16:59;;;;;;;4.32;1.25;;;5.20;49.00;;;;;;5123507;27;34314;-77
2022/01/05 11:19:36;;;;;;;5.60;1.40;;;5.20;49.40;;;;;;5124231;27;34356;-77
2022/01/05 11:22:14;;;;;;;4.20;1.50;;;5.20;49.70;;;;;;5106611;27;34142;-77
2022/01/05 11:24:45;;;;;;;3.30;1.50;;;5.30;49.50;;;;;;5106376;27;35767;-77
2022/01/05 11:27:14;;;;;;;4.75;1.70;;;5.30;50.20;;;;;;5123225;27;34200;-77
2022/01/05 11:29:41;;;;;;;2.25;1.25;;;5.30;49.60;;;;;;5106933;27;34146;-76
2022/01/05 11:32:10;;;;;;;4.00;1.00;;;5.30;49.90;;;;;;5106795;27;34193;-76
2022/01/05 11:34:36;;;;;;;4.63;1.30;;;5.30;49.40;;;;;;5124637;27;34475;-77
2022/01/05 11:37:03;;;;;;;6.90;1.70;;;5.40;48.90;;;;;;5123538;27;34092;-77
2022/01/05 11:39:32;;;;;;;5.00;1.58;;;5.40;49.90;;;;;;5107208;27;34150;-77
2022/01/05 11:42:01;;;;;;;4.10;1.35;;;5.40;49.80;;;;;;5106362;27;34599;-77
2022/01/05 11:44:29;;;;;;;2.40;1.33;;;5.40;48.70;;;;;;5106054;27;35800;-77
2022/01/05 11:46:56;;;;;;;2.97;1.58;;;5.40;49.20;;;;;;5106697;27;34518;-77
2022/01/05 11:49:27;;;;;;;4.18;1.27;;;5.30;49.60;;;;;;5124091;27;34179;-76
2022/01/05 11:51:55;;;;;;;4.20;1.50;;;5.40;49.00;;;;;;5124334;27;34100;-78
2022/01/05 11:54:25;;;;;;;5.93;1.50;;;5.40;47.70;;;;;;5106792;27;36812;-77
2022/01/05 11:57:04;;;;;;;4.05;1.52;;;5.30;49.40;;;;;;5123996;27;34170;-77
2022/01/05 11:59:35;;;;;;;5.57;1.23;;;5.30;49.00;;;;;;5106933;27;34235;-77
2022/01/05 12:02:06;;;;;;;3.88;1.13;;;5.30;49.40;;;;;;5123135;27;34243;-77
2022/01/05 12:04:57;;;;;;;6.38;1.40;;;5.30;48.90;;;;;;5105911;27;35818;-77
2022/01/05 12:07:40;;;;;;;3.80;1.20;;;5.20;46.30;;;;;;5109800;27;34217;-77
2022/01/05 12:10:12;;;;;;;7.90;1.70;;;5.30;48.70;;;;;;5125379;27;34266;-77
2022/01/05 12:13:01;;;;;;;7.20;1.50;;;5.30;49.60;;;;;;5124311;27;34398;-76
2022/01/05 12:15:51;;;;;;;4.97;2.13;;;5.40;48.50;;;;;;5123865;27;35642;-77
2022/01/05 12:18:23;;;;;;;3.75;1.20;;;5.40;48.30;;;;;;5123726;27;34178;-77
2022/01/05 12:20:49;;;;;;;2.50;1.25;;;5.40;49.40;;;;;;5125013;27;34196;-77
2022/01/05 12:23:20;;;;;;;2.25;1.02;;;5.40;49.70;;;;;;5124306;27;34034;-76
2022/01/05 12:26:17;;;;;;;2.20;0.88;;;5.40;49.40;;;;;;5124883;27;34413;-77
2022/01/05 12:28:53;;;;;;;4.53;1.40;;;5.30;48.10;;;;;;5123955;27;34072;-77
2022/01/05 12:31:55;;;;;;;5.88;1.38;;;5.30;45.20;;;;;;5125792;27;34037;-76
2022/01/05 12:34:53;;;;;;;2.55;1.20;;;5.40;46.60;;;;;;5112103;27;34220;-76
2022/01/05 12:37:51;;;;;;;3.63;1.20;;;5.40;46.90;;;;;;5123989;27;35537;-76
2022/01/05 12:40:47;;;;;;;1.35;1.20;;;5.30;47.80;;;;;;5124069;27;34181;-76
2022/01/05 12:43:34;;;;;;;4.07;1.20;;;5.40;48.40;;;;;;5123980;27;34228;-76
2022/01/05 12:46:05;;;;;;;7.53;1.52;;;5.40;49.20;;;;;;5124756;27;34181;-76
2022/01/05 12:48:54;;;;;;;6.13;1.25;;;5.40;49.40;;;;;;5123270;27;35042;-76
2022/01/05 12:51:43;;;;;;;4.22;1.55;;;5.40;46.90;;;;;;5106827;27;34190;-76
2022/01/05 12:54:16;;;;;;;5.55;1.35;;;5.40;48.90;;;;;;5124013;27;34142;-76
2022/01/05 12:56:50;;;;;;;4.07;1.50;;;5.40;49.80;;;;;;5124335;27;34255;-76
2022/01/05 12:59:21;;;;;;;5.85;1.30;;;5.40;50.00;;;;;;5124875;27;34475;-76
2022/01/05 13:01:52;;;;;;;3.78;1.25;;;5.40;49.60;;;;;;5124385;27;34128;-76
2022/01/05 13:04:19;;;;;;;2.83;1.00;;;5.40;49.70;;;;;;5123305;27;34038;-76
2022/01/05 13:06:46;;;;;;;5.90;1.13;;;5.40;49.50;;;;;;5089737;27;34097;-76
2022/01/05 13:09:21;;;;;;;4.22;1.20;;;5.40;49.10;;;;;;5103092;27;35885;-76
2022/01/05 13:11:50;;;;;;;9.23;1.27;;;5.40;49.60;;;;;;5136818;27;34267;-76